createdAt,value
2023-04-27T00:01:52.019Z,7.95
2023-04-27T00:04:19.375Z,7.98
2023-04-27T00:06:46.208Z,7.86
2023-04-27T00:09:12.990Z,7.81
2023-04-27T00:11:39.540Z,7.81
2023-04-27T00:14:06.088Z,7.69
2023-04-27T00:16:32.653Z,7.77
2023-04-27T00:18:59.177Z,7.77
2023-04-27T00:21:25.639Z,7.80
2023-04-27T00:23:52.168Z,7.75
2023-04-27T00:26:18.655Z,7.70
2023-04-27T00:28:48.515Z,7.53
2023-04-27T00:31:15.118Z,7.60
2023-04-27T00:33:41.806Z,7.62
2023-04-27T00:36:08.568Z,7.67
2023-04-27T00:38:35.011Z,7.73
2023-04-27T00:41:02.440Z,7.69
2023-04-27T00:43:28.915Z,7.62
2023-04-27T00:45:55.857Z,7.61
2023-04-27T00:48:22.522Z,7.52
2023-04-27T00:50:50.956Z,7.53
2023-04-27T00:53:18.014Z,7.47
2023-04-27T00:55:44.549Z,7.55
2023-04-27T00:58:11.840Z,7.48
2023-04-27T01:00:40.032Z,7.48
2023-04-27T01:03:07.478Z,7.66
2023-04-27T01:05:34.818Z,7.67
2023-04-27T01:08:01.460Z,7.33
2023-04-27T01:10:28.477Z,7.22
2023-04-27T01:12:55.615Z,7.27
2023-04-27T01:15:22.125Z,7.43
2023-04-27T01:17:48.662Z,7.46
2023-04-27T01:20:15.428Z,7.51
2023-04-27T01:22:43.130Z,7.60
2023-04-27T01:25:09.750Z,7.56
2023-04-27T01:27:36.254Z,7.37
2023-04-27T01:30:03.568Z,7.37
2023-04-27T01:32:30.590Z,7.43
2023-04-27T01:34:57.098Z,7.44
2023-04-27T01:37:26.338Z,7.41
2023-04-27T01:39:52.836Z,7.24
2023-04-27T01:42:19.368Z,7.09
2023-04-27T01:44:46.063Z,7.00
2023-04-27T01:47:12.505Z,7.18
2023-04-27T01:49:40.175Z,7.13
2023-04-27T01:52:06.788Z,7.15
2023-04-27T01:54:33.538Z,7.13
2023-04-27T01:57:00.026Z,7.07
2023-04-27T01:59:26.596Z,7.06
2023-04-27T02:01:53.223Z,7.14
2023-04-27T02:04:19.810Z,7.14
2023-04-27T02:06:46.535Z,7.06
2023-04-27T02:09:13.680Z,7.01
2023-04-27T02:11:40.730Z,7.12
2023-04-27T02:14:07.216Z,7.15
2023-04-27T02:16:33.770Z,7.24
2023-04-27T02:19:01.624Z,7.26
2023-04-27T02:21:29.509Z,7.21
2023-04-27T02:23:56.344Z,7.28
2023-04-27T02:26:29.186Z,7.41
2023-04-27T02:28:57.137Z,7.35
2023-04-27T02:31:24.180Z,7.33
2023-04-27T02:33:50.992Z,7.42
2023-04-27T02:36:17.422Z,7.29
2023-04-27T02:38:43.987Z,7.39
2023-04-27T02:41:10.504Z,7.51
2023-04-27T02:43:36.937Z,7.48
2023-04-27T02:46:05.741Z,7.56
2023-04-27T02:48:32.334Z,7.53
2023-04-27T02:50:58.825Z,7.36
2023-04-27T02:53:25.655Z,7.18
2023-04-27T02:55:52.155Z,7.19
2023-04-27T02:58:18.652Z,7.21
2023-04-27T03:00:45.582Z,7.33
2023-04-27T03:03:12.608Z,7.25
2023-04-27T03:05:39.284Z,7.42
2023-04-27T03:08:05.801Z,7.33
2023-04-27T03:10:32.286Z,7.38
2023-04-27T03:12:58.755Z,7.40
2023-04-27T03:15:25.210Z,7.24
2023-04-27T03:17:52.220Z,7.20
2023-04-27T03:20:18.867Z,7.21
2023-04-27T03:22:45.900Z,7.29
2023-04-27T03:25:12.549Z,7.27
2023-04-27T03:27:39.024Z,7.49
2023-04-27T03:30:05.892Z,7.51
2023-04-27T03:32:32.863Z,7.43
2023-04-27T03:35:01.014Z,7.48
2023-04-27T03:37:27.472Z,7.50
2023-04-27T03:39:56.570Z,7.38
2023-04-27T03:42:23.248Z,7.44
2023-04-27T03:44:49.961Z,7.36
2023-04-27T03:47:16.586Z,7.08
2023-04-27T03:49:43.047Z,6.94
2023-04-27T03:52:09.519Z,6.98
2023-04-27T03:54:36.569Z,7.07
2023-04-27T03:57:04.409Z,7.07
2023-04-27T03:59:31.096Z,7.08
2023-04-27T04:02:01.493Z,7.15
2023-04-27T04:04:28.245Z,7.23
2023-04-27T04:06:54.858Z,7.08
2023-04-27T04:09:23.967Z,7.29
2023-04-27T04:11:51.850Z,7.41
2023-04-27T04:14:19.171Z,7.50
2023-04-27T04:16:46.309Z,7.31
2023-04-27T04:19:13.194Z,7.27
2023-04-27T04:21:39.961Z,7.19
2023-04-27T04:24:07.418Z,7.36
2023-04-27T04:26:33.935Z,7.55
2023-04-27T04:29:01.190Z,7.73
2023-04-27T04:31:27.858Z,7.54
2023-04-27T04:33:54.395Z,7.49
2023-04-27T04:36:21.505Z,7.49
2023-04-27T04:38:49.684Z,7.45
2023-04-27T04:41:17.013Z,7.40
2023-04-27T04:43:43.502Z,7.51
2023-04-27T04:46:09.998Z,7.57
2023-04-27T04:48:36.850Z,7.62
2023-04-27T04:51:04.935Z,7.63
2023-04-27T04:53:32.354Z,7.61
2023-04-27T04:56:08.010Z,7.64
2023-04-27T04:58:34.514Z,7.58
2023-04-27T05:01:01.807Z,7.75
2023-04-27T05:03:28.435Z,7.93
2023-04-27T05:05:55.122Z,8.32
2023-04-27T05:08:21.556Z,8.39
2023-04-27T05:10:51.795Z,8.34
2023-04-27T05:13:18.259Z,8.33
2023-04-27T05:15:44.811Z,8.51
2023-04-27T05:18:11.265Z,8.63
2023-04-27T05:20:38.475Z,8.83
2023-04-27T05:23:05.133Z,9.01
2023-04-27T05:25:32.149Z,9.17
2023-04-27T05:27:58.711Z,8.91
2023-04-27T05:30:25.264Z,9.15
2023-04-27T05:32:51.711Z,9.08
2023-04-27T05:35:18.334Z,9.01
2023-04-27T05:37:44.841Z,9.27
2023-04-27T05:40:11.426Z,9.54
2023-04-27T05:42:37.920Z,9.62
2023-04-27T05:45:04.582Z,9.75
2023-04-27T05:47:31.072Z,9.71
2023-04-27T05:49:57.562Z,9.86
2023-04-27T05:52:29.517Z,9.56
2023-04-27T05:54:56.730Z,9.72
2023-04-27T05:57:23.161Z,9.60
2023-04-27T05:59:49.680Z,9.94
2023-04-27T06:02:16.651Z,10.28
2023-04-27T06:04:43.268Z,10.61
2023-04-27T06:07:13.788Z,10.69
2023-04-27T06:09:40.696Z,11.05
2023-04-27T06:12:07.968Z,11.44
2023-04-27T06:14:35.813Z,11.15
2023-04-27T06:17:02.685Z,11.43
2023-04-27T06:19:29.187Z,11.20
2023-04-27T06:21:56.110Z,10.66
2023-04-27T06:24:22.599Z,10.98
2023-04-27T06:26:49.578Z,11.48
2023-04-27T06:29:16.080Z,11.68
2023-04-27T06:31:42.642Z,12.14
2023-04-27T06:34:09.296Z,12.23
2023-04-27T06:36:36.242Z,12.03
2023-04-27T06:39:02.699Z,11.85
2023-04-27T06:41:29.146Z,11.21
2023-04-27T06:43:58.457Z,11.59
2023-04-27T06:46:25.453Z,12.15
2023-04-27T06:48:52.665Z,12.37
2023-04-27T06:51:19.299Z,12.57
2023-04-27T06:53:46.150Z,12.44
2023-04-27T06:56:12.625Z,12.39
2023-04-27T06:58:39.108Z,12.77
2023-04-27T07:01:05.634Z,12.78
2023-04-27T07:03:34.578Z,13.28
2023-04-27T07:06:01.356Z,12.97
2023-04-27T07:08:27.877Z,13.09
2023-04-27T07:10:54.473Z,12.82
2023-04-27T07:13:20.952Z,13.28
2023-04-27T07:15:47.481Z,13.13
2023-04-27T07:18:13.969Z,13.45
2023-04-27T07:20:41.162Z,13.22
2023-04-27T07:23:08.113Z,13.58
2023-04-27T07:25:35.304Z,13.71
2023-04-27T07:28:01.768Z,12.94
2023-04-27T07:30:30.676Z,14.15
2023-04-27T07:32:57.393Z,15.09
2023-04-27T07:35:23.894Z,15.42
2023-04-27T07:37:52.048Z,16.10
2023-04-27T07:40:18.734Z,16.88
2023-04-27T07:42:48.149Z,16.85
2023-04-27T07:45:15.386Z,17.42
2023-04-27T07:47:42.427Z,17.16
2023-04-27T07:50:09.308Z,16.60
2023-04-27T07:52:37.581Z,16.52
2023-04-27T07:55:04.692Z,16.48
2023-04-27T07:57:31.554Z,15.33
2023-04-27T07:59:58.145Z,15.52
2023-04-27T08:02:26.840Z,15.67
2023-04-27T08:04:53.939Z,14.84
2023-04-27T08:07:20.881Z,15.07
2023-04-27T08:09:47.428Z,16.01
2023-04-27T08:12:13.938Z,15.97
2023-04-27T08:14:40.407Z,17.35
2023-04-27T08:17:07.040Z,17.09
2023-04-27T08:19:33.572Z,16.53
2023-04-27T08:22:00.782Z,15.73
2023-04-27T08:24:27.258Z,14.89
2023-04-27T08:26:53.753Z,15.54
2023-04-27T08:29:27.713Z,16.43
2023-04-27T08:31:56.861Z,17.99
2023-04-27T08:34:23.870Z,18.92
2023-04-27T08:36:50.386Z,18.01
2023-04-27T08:39:18.165Z,18.00
2023-04-27T08:41:45.255Z,17.38
2023-04-27T08:44:11.959Z,15.94
2023-04-27T08:46:38.735Z,16.56
2023-04-27T08:49:06.150Z,16.73
2023-04-27T08:51:33.269Z,15.75
2023-04-27T08:53:59.738Z,16.73
2023-04-27T08:56:27.934Z,17.25
2023-04-27T08:58:55.671Z,17.04
2023-04-27T09:01:22.700Z,17.44
2023-04-27T09:03:50.013Z,17.66
2023-04-27T09:06:17.062Z,18.08
2023-04-27T09:08:47.900Z,16.83
2023-04-27T09:11:14.829Z,16.69
2023-04-27T09:13:45.062Z,17.54
2023-04-27T09:16:15.093Z,16.53
2023-04-27T09:18:42.592Z,15.78
2023-04-27T09:21:09.587Z,15.46
2023-04-27T09:23:36.958Z,15.88
2023-04-27T09:26:07.938Z,16.65
2023-04-27T09:28:35.978Z,16.40
2023-04-27T09:31:03.105Z,15.98
2023-04-27T09:33:31.021Z,16.54
2023-04-27T09:35:58.451Z,16.66
2023-04-27T09:38:25.449Z,16.54
2023-04-27T09:40:52.704Z,17.28
2023-04-27T09:43:19.228Z,17.21
2023-04-27T09:45:46.267Z,17.40
2023-04-27T09:48:13.591Z,17.83
2023-04-27T09:50:41.073Z,17.37
2023-04-27T09:53:15.672Z,17.84
2023-04-27T09:55:47.198Z,16.88
2023-04-27T09:58:13.639Z,17.03
2023-04-27T10:01:00.866Z,16.16
2023-04-27T10:03:35.542Z,16.07
2023-04-27T10:06:20.904Z,16.53
2023-04-27T10:08:47.418Z,18.10
2023-04-27T10:11:15.442Z,19.61
2023-04-27T10:13:52.419Z,19.50
2023-04-27T10:16:21.546Z,19.77
2023-04-27T10:18:55.015Z,19.51
2023-04-27T10:21:21.791Z,20.93
2023-04-27T10:23:50.598Z,21.38
2023-04-27T10:26:23.993Z,20.19
2023-04-27T10:28:57.669Z,21.36
2023-04-27T10:31:28.335Z,18.18
2023-04-27T10:34:05.055Z,20.33
2023-04-27T10:36:36.971Z,19.66
2023-04-27T10:39:06.625Z,20.38
2023-04-27T10:41:36.356Z,19.55
2023-04-27T10:44:19.405Z,19.65
2023-04-27T10:46:52.739Z,19.75
2023-04-27T10:49:19.670Z,17.83
2023-04-27T10:51:47.086Z,18.74
2023-04-27T10:54:13.881Z,19.88
2023-04-27T10:56:41.048Z,18.33
2023-04-27T10:59:10.284Z,19.53
2023-04-27T11:01:37.273Z,17.86
2023-04-27T11:04:04.311Z,19.06
2023-04-27T11:06:33.497Z,20.61
2023-04-27T11:09:00.478Z,19.81
2023-04-27T11:11:27.086Z,21.04
2023-04-27T11:13:53.529Z,21.27
2023-04-27T11:16:20.128Z,20.31
2023-04-27T11:18:46.725Z,19.75
2023-04-27T11:21:14.202Z,19.80
2023-04-27T11:23:41.368Z,18.72
2023-04-27T11:26:15.141Z,18.25
2023-04-27T11:28:42.590Z,18.61
2023-04-27T11:31:09.492Z,18.20
2023-04-27T11:33:36.307Z,17.23
2023-04-27T11:36:03.435Z,17.75
2023-04-27T11:38:33.518Z,17.45
2023-04-27T11:41:01.072Z,16.98
2023-04-27T11:43:27.740Z,17.48
2023-04-27T11:45:55.369Z,17.53
2023-04-27T11:48:25.476Z,17.36
2023-04-27T11:50:53.407Z,16.92
2023-04-27T11:53:32.972Z,16.19
2023-04-27T11:56:01.161Z,16.44
2023-04-27T11:58:28.128Z,15.97
2023-04-27T12:00:56.324Z,16.44
2023-04-27T12:03:22.960Z,16.16
2023-04-27T12:05:50.831Z,16.16
2023-04-27T12:08:17.613Z,16.06
2023-04-27T12:10:44.542Z,15.95
2023-04-27T12:13:11.807Z,16.06
2023-04-27T12:15:42.421Z,15.93
2023-04-27T12:18:09.414Z,16.11
2023-04-27T12:20:36.108Z,15.86
2023-04-27T12:23:02.636Z,16.89
2023-04-27T12:25:29.085Z,18.03
2023-04-27T12:27:55.982Z,17.80
2023-04-27T12:30:23.122Z,18.64
2023-04-27T12:32:49.620Z,18.36
2023-04-27T12:35:16.213Z,18.70
2023-04-27T12:37:42.851Z,18.86
2023-04-27T12:40:09.884Z,18.45
2023-04-27T12:42:36.432Z,18.84
2023-04-27T12:45:04.578Z,17.87
2023-04-27T12:47:53.855Z,18.50
2023-04-27T12:50:18.578Z,18.82
2023-04-27T12:52:45.156Z,19.44
2023-04-27T12:55:24.863Z,18.46
2023-04-27T12:57:58.447Z,19.51
2023-04-27T13:00:25.547Z,19.97
2023-04-27T13:02:52.773Z,19.63
2023-04-27T13:05:19.756Z,19.03
2023-04-27T13:07:46.207Z,18.28
2023-04-27T13:10:12.770Z,18.33
2023-04-27T13:12:39.321Z,18.20
2023-04-27T13:15:07.955Z,18.66
2023-04-27T13:17:34.610Z,18.31
2023-04-27T13:20:01.128Z,17.35
2023-04-27T13:22:28.000Z,17.19
2023-04-27T13:24:54.607Z,17.49
2023-04-27T13:27:22.448Z,17.63
2023-04-27T13:29:51.172Z,18.46
2023-04-27T13:32:17.832Z,19.15
2023-04-27T13:34:44.371Z,19.89
2023-04-27T13:37:10.941Z,19.72
2023-04-27T13:39:37.696Z,19.53
2023-04-27T13:42:04.360Z,20.54
2023-04-27T13:44:31.868Z,20.00
2023-04-27T13:46:58.639Z,19.21
2023-04-27T13:49:25.937Z,20.11
2023-04-27T13:51:52.697Z,20.84
2023-04-27T13:54:19.951Z,20.44
2023-04-27T13:56:46.515Z,20.65
2023-04-27T13:59:13.220Z,20.35
2023-04-27T14:01:40.161Z,19.39
2023-04-27T14:04:06.797Z,18.55
2023-04-27T14:06:33.386Z,18.36
2023-04-27T14:08:59.820Z,18.23
2023-04-27T14:11:26.320Z,17.62
2023-04-27T14:13:52.868Z,17.49
2023-04-27T14:16:19.382Z,18.49
2023-04-27T14:18:45.921Z,18.49
2023-04-27T14:21:12.403Z,17.95
2023-04-27T14:23:38.899Z,17.98
2023-04-27T14:26:05.823Z,18.05
2023-04-27T14:28:32.336Z,17.97
2023-04-27T14:30:58.766Z,18.17
2023-04-27T14:33:25.482Z,17.34
2023-04-27T14:35:51.969Z,17.22
2023-04-27T14:38:18.457Z,17.29
2023-04-27T14:40:44.963Z,16.90
2023-04-27T14:43:11.757Z,16.96
2023-04-27T14:45:51.178Z,17.28
2023-04-27T14:48:20.941Z,17.18
2023-04-27T14:50:47.409Z,17.23
2023-04-27T14:53:13.987Z,16.78
2023-04-27T14:55:43.513Z,16.54
2023-04-27T14:58:10.074Z,16.61
2023-04-27T15:00:36.519Z,16.97
2023-04-27T15:03:03.105Z,17.15
2023-04-27T15:05:29.717Z,17.96
2023-04-27T15:07:56.240Z,17.71
2023-04-27T15:10:22.773Z,18.04
2023-04-27T15:12:49.263Z,18.31
2023-04-27T15:15:16.220Z,18.11
2023-04-27T15:17:42.681Z,17.28
2023-04-27T15:20:10.953Z,17.22
2023-04-27T15:22:37.408Z,17.08
2023-04-27T15:25:04.139Z,17.10
2023-04-27T15:27:30.603Z,17.25
2023-04-27T15:29:58.100Z,17.04
2023-04-27T15:32:29.795Z,17.06
2023-04-27T15:34:59.265Z,16.84
2023-04-27T15:37:26.508Z,17.24
2023-04-27T15:39:52.961Z,17.39
2023-04-27T15:42:19.457Z,17.07
2023-04-27T15:44:46.057Z,17.23
2023-04-27T15:47:13.420Z,17.45
2023-04-27T15:49:53.563Z,16.96
2023-04-27T15:52:23.804Z,17.91
2023-04-27T15:54:50.286Z,17.26
2023-04-27T15:57:18.201Z,17.44
2023-04-27T15:59:44.705Z,17.24
2023-04-27T16:02:11.482Z,17.75
2023-04-27T16:04:38.045Z,18.21
2023-04-27T16:07:06.870Z,18.25
2023-04-27T16:09:33.446Z,17.62
2023-04-27T16:11:59.892Z,17.49
2023-04-27T16:14:26.654Z,17.49
2023-04-27T16:16:54.879Z,17.41
2023-04-27T16:19:22.664Z,17.01
2023-04-27T16:21:49.630Z,17.57
2023-04-27T16:24:16.066Z,17.57
2023-04-27T16:26:42.528Z,18.36
2023-04-27T16:29:09.019Z,17.31
2023-04-27T16:31:35.605Z,16.78
2023-04-27T16:34:02.152Z,16.77
2023-04-27T16:36:28.760Z,16.81
2023-04-27T16:38:55.648Z,16.51
2023-04-27T16:41:22.552Z,16.56
2023-04-27T16:43:50.671Z,16.55
2023-04-27T16:46:17.476Z,17.16
2023-04-27T16:48:44.240Z,17.08
2023-04-27T16:51:10.735Z,16.84
2023-04-27T16:53:37.280Z,16.43
2023-04-27T16:56:03.901Z,16.31
2023-04-27T16:58:30.777Z,16.26
2023-04-27T17:00:58.085Z,16.03
2023-04-27T17:03:24.744Z,16.09
2023-04-27T17:05:51.900Z,16.15
2023-04-27T17:08:18.483Z,15.86
2023-04-27T17:10:45.522Z,15.85
2023-04-27T17:13:14.610Z,15.79
2023-04-27T17:15:41.090Z,15.79
2023-04-27T17:18:09.533Z,15.96
2023-04-27T17:20:36.110Z,15.95
2023-04-27T17:23:02.598Z,15.91
2023-04-27T17:25:29.088Z,15.82
2023-04-27T17:27:55.651Z,15.87
2023-04-27T17:30:22.103Z,15.89
2023-04-27T17:32:48.664Z,15.85
2023-04-27T17:35:15.334Z,15.83
2023-04-27T17:37:41.819Z,15.75
2023-04-27T17:40:09.117Z,15.49
2023-04-27T17:42:35.753Z,15.29
2023-04-27T17:45:02.519Z,15.16
2023-04-27T17:47:29.030Z,14.95
2023-04-27T17:49:55.673Z,14.81
2023-04-27T17:52:22.102Z,15.20
2023-04-27T17:54:48.559Z,14.69
2023-04-27T17:57:15.080Z,14.70
2023-04-27T17:59:41.687Z,14.75
2023-04-27T18:02:08.253Z,14.77
2023-04-27T18:04:35.009Z,14.69
2023-04-27T18:07:01.491Z,14.56
2023-04-27T18:09:28.774Z,14.43
2023-04-27T18:11:56.534Z,14.25
2023-04-27T18:14:22.995Z,14.34
2023-04-27T18:16:49.531Z,14.33
2023-04-27T18:19:16.397Z,14.18
2023-04-27T18:21:43.125Z,14.02
2023-04-27T18:24:09.821Z,13.84
2023-04-27T18:26:38.916Z,13.90
2023-04-27T18:29:05.395Z,13.91
2023-04-27T18:31:31.969Z,13.53
2023-04-27T18:33:59.268Z,13.38
2023-04-27T18:36:27.526Z,13.33
2023-04-27T18:38:54.197Z,13.39
2023-04-27T18:41:21.206Z,13.41
2023-04-27T18:43:47.652Z,13.34
2023-04-27T18:46:14.130Z,13.53
2023-04-27T18:48:41.226Z,13.51
2023-04-27T18:51:07.864Z,13.51
2023-04-27T18:53:34.329Z,13.48
2023-04-27T18:56:00.825Z,13.28
2023-04-27T18:58:27.275Z,13.23
2023-04-27T19:00:53.853Z,13.14
2023-04-27T19:03:20.482Z,13.97
2023-04-27T19:05:47.134Z,13.40
2023-04-27T19:08:13.673Z,13.72
2023-04-27T19:10:41.556Z,13.62
2023-04-27T19:13:08.227Z,13.60
2023-04-27T19:15:34.924Z,13.55
2023-04-27T19:18:07.036Z,13.39
2023-04-27T19:20:36.948Z,13.35
2023-04-27T19:23:03.542Z,13.49
2023-04-27T19:25:30.113Z,13.48
2023-04-27T19:27:56.572Z,13.36
2023-04-27T19:30:23.026Z,13.28
2023-04-27T19:32:49.583Z,13.37
2023-04-27T19:35:16.393Z,13.26
2023-04-27T19:37:42.850Z,13.36
2023-04-27T19:40:09.648Z,13.26
2023-04-27T19:42:36.133Z,13.22
2023-04-27T19:45:03.976Z,13.07
2023-04-27T19:47:30.899Z,13.12
2023-04-27T19:49:58.986Z,13.01
2023-04-27T19:52:25.896Z,12.89
2023-04-27T19:54:53.212Z,12.81
2023-04-27T19:57:20.448Z,12.77
2023-04-27T19:59:46.933Z,12.49
2023-04-27T20:02:13.509Z,12.65
2023-04-27T20:04:41.569Z,12.45
2023-04-27T20:07:08.260Z,12.50
2023-04-27T20:09:34.749Z,12.52
2023-04-27T20:12:01.318Z,12.42
2023-04-27T20:14:30.024Z,12.29
2023-04-27T20:16:56.720Z,12.04
2023-04-27T20:19:25.146Z,11.86
2023-04-27T20:21:51.609Z,11.39
2023-04-27T20:24:18.200Z,11.50
2023-04-27T20:26:44.784Z,11.67
2023-04-27T20:29:11.655Z,11.75
2023-04-27T20:31:38.204Z,11.74
2023-04-27T20:34:04.733Z,11.49
2023-04-27T20:36:32.076Z,11.65
2023-04-27T20:39:00.802Z,11.49
2023-04-27T20:41:27.555Z,11.61
2023-04-27T20:43:54.060Z,11.75
2023-04-27T20:46:21.050Z,11.79
2023-04-27T20:48:47.610Z,11.75
2023-04-27T20:51:14.102Z,11.82
2023-04-27T20:53:40.653Z,11.82
2023-04-27T20:56:07.357Z,11.88
2023-04-27T20:58:33.785Z,11.89
2023-04-27T21:01:00.470Z,11.97
2023-04-27T21:03:27.037Z,11.97
2023-04-27T21:05:53.705Z,12.08
2023-04-27T21:08:20.209Z,12.12
2023-04-27T21:10:46.793Z,12.21
2023-04-27T21:13:13.232Z,12.16
2023-04-27T21:15:39.702Z,12.27
2023-04-27T21:18:07.833Z,12.35
2023-04-27T21:20:36.132Z,12.39
2023-04-27T21:23:02.797Z,12.41
2023-04-27T21:25:29.360Z,12.53
2023-04-27T21:27:56.001Z,12.57
2023-04-27T21:30:22.644Z,12.56
2023-04-27T21:32:49.176Z,12.57
2023-04-27T21:35:15.645Z,12.58
2023-04-27T21:37:42.180Z,12.65
2023-04-27T21:40:08.849Z,12.63
2023-04-27T21:42:35.381Z,12.62
2023-04-27T21:45:03.753Z,12.70
2023-04-27T21:47:30.273Z,12.68
2023-04-27T21:49:56.848Z,12.59
2023-04-27T21:52:24.400Z,12.59
2023-04-27T21:54:50.945Z,12.67
2023-04-27T21:57:19.425Z,12.65
2023-04-27T21:59:46.625Z,12.58
2023-04-27T22:02:13.142Z,12.67
2023-04-27T22:04:39.723Z,12.67
2023-04-27T22:07:07.940Z,12.73
2023-04-27T22:09:35.462Z,12.76
2023-04-27T22:12:06.860Z,12.67
2023-04-27T22:14:33.979Z,12.62
2023-04-27T22:17:02.023Z,12.44
2023-04-27T22:19:28.771Z,12.53
2023-04-27T22:21:55.476Z,12.44
2023-04-27T22:24:22.056Z,12.41
2023-04-27T22:26:48.582Z,12.28
2023-04-27T22:29:15.442Z,12.34
2023-04-27T22:31:42.160Z,12.37
2023-04-27T22:34:08.981Z,12.34
2023-04-27T22:36:35.476Z,12.21
2023-04-27T22:39:02.408Z,11.96
2023-04-27T22:41:28.853Z,11.83
2023-04-27T22:43:55.524Z,11.78
2023-04-27T22:46:23.391Z,11.63
2023-04-27T22:48:50.866Z,11.37
2023-04-27T22:51:17.348Z,11.43
2023-04-27T22:53:43.855Z,11.25
2023-04-27T22:56:10.443Z,11.29
2023-04-27T22:58:37.073Z,11.11
2023-04-27T23:01:03.863Z,11.10
2023-04-27T23:03:30.469Z,11.09
2023-04-27T23:05:57.091Z,11.12
2023-04-27T23:08:24.835Z,11.18
2023-04-27T23:10:54.459Z,11.22
2023-04-27T23:13:27.433Z,11.07
2023-04-27T23:15:57.105Z,10.98
2023-04-27T23:18:23.629Z,10.82
2023-04-27T23:20:56.662Z,10.83
2023-04-27T23:23:23.130Z,10.70
2023-04-27T23:25:49.732Z,10.55
2023-04-27T23:28:16.719Z,10.69
2023-04-27T23:30:43.257Z,10.73
2023-04-27T23:33:09.766Z,10.81
2023-04-27T23:35:36.344Z,10.66
2023-04-27T23:38:02.821Z,10.75
2023-04-27T23:40:29.373Z,10.66
2023-04-27T23:42:55.964Z,10.48
2023-04-27T23:45:22.459Z,10.31
2023-04-27T23:47:49.323Z,10.25
2023-04-27T23:50:15.975Z,10.33
2023-04-27T23:52:42.686Z,10.27
2023-04-27T23:55:09.436Z,10.11
2023-04-27T23:57:35.893Z,10.10
